Time;durP1;ratioP1;P1;durP2;ratioP2;P2;SDS_P1;SDS_P2;PMS_P1;PMS_P2;Temp;Humidity;BMP_temperature;BMP_pressure;BME280_temperature;BME280_humidity;BME280_pressure;Samples;Min_cycle;Max_cycle;Signal;HPM_P1;HPM_P2
2022/12/29 00:01:02;;;;;;;12.77;6.18;;;;;;;7.42;100.00;98331.34;6248429;22;20011;-83
2022/12/29 00:03:28;;;;;;;14.80;7.28;;;;;;;7.35;100.00;98340.47;6247931;22;20004;-84
2022/12/29 00:05:57;;;;;;;19.20;8.30;;;;;;;7.20;100.00;98322.41;6248150;22;20082;-84
2022/12/29 00:08:38;;;;;;;13.30;7.22;;;;;;;7.02;100.00;98331.94;6248090;22;20355;-83
2022/12/29 00:11:06;;;;;;;14.27;8.20;;;;;;;6.92;100.00;98327.84;6273563;22;20003;-83
2022/12/29 00:16:16;;;;;;;16.70;7.03;;;;;;;6.58;100.00;98348.56;6273877;22;20404;-83
2022/12/29 00:18:41;;;;;;;14.38;7.22;;;;;;;6.44;100.00;98346.34;6247598;22;20035;-83
2022/12/29 00:35:08;;;;;;;24.20;11.32;;;;;;;6.10;100.00;98376.66;6274909;22;20030;-84
2022/12/29 00:45:49;;;;;;;16.65;8.60;;;;;;;5.83;100.00;98405.78;6275506;22;20014;-84
2022/12/29 00:48:15;;;;;;;17.90;9.20;;;;;;;5.78;100.00;98390.91;6275284;22;20410;-83
2022/12/29 00:50:40;;;;;;;22.65;10.20;;;;;;;5.73;100.00;98391.00;6249945;22;20082;-83
2022/12/29 00:53:06;;;;;;;20.52;10.32;;;;;;;5.65;100.00;98400.13;6249616;22;20509;-83
2022/12/29 00:55:36;;;;;;;25.70;9.93;;;;;;;5.54;100.00;98403.06;6275164;22;20078;-83
2022/12/29 00:58:02;;;;;;;23.05;10.38;;;;;;;5.39;100.00;98387.59;6249489;22;20003;-84
2022/12/29 01:00:27;;;;;;;21.20;11.05;;;;;;;5.33;100.00;98387.75;6275074;22;20012;-83
2022/12/29 01:02:53;;;;;;;24.85;11.18;;;;;;;5.06;100.00;98392.03;6249406;22;20445;-83
2022/12/29 01:05:18;;;;;;;24.02;11.05;;;;;;;5.01;100.00;98406.31;6249593;22;20004;-82
2022/12/29 01:07:44;;;;;;;18.35;9.70;;;;;;;4.97;100.00;98410.84;6249593;22;20008;-83
2022/12/29 01:10:09;;;;;;;20.20;10.30;;;;;;;4.92;100.00;98413.59;6275213;22;20355;-82
2022/12/29 01:12:40;;;;;;;25.42;10.25;;;;;;;4.95;100.00;98425.03;6249359;22;20346;-83
2022/12/29 01:15:11;;;;;;;16.90;8.63;;;;;;;4.93;100.00;98435.66;6250839;22;20014;-82
2022/12/29 01:17:37;;;;;;;19.15;8.55;;;;;;;4.92;100.00;98412.75;6274945;22;20325;-82
2022/12/29 01:20:03;;;;;;;12.18;5.88;;;;;;;5.10;100.00;98420.22;6250173;22;20010;-82
2022/12/29 01:22:28;;;;;;;14.43;7.18;;;;;;;5.40;100.00;98410.56;6249507;22;20007;-82
2022/12/29 01:24:54;;;;;;;17.20;8.15;;;;;;;5.33;100.00;98393.94;6249906;22;20020;-82
2022/12/29 01:27:19;;;;;;;14.88;8.15;;;;;;;5.31;100.00;98398.41;6249668;22;20004;-82
2022/12/29 01:29:45;;;;;;;18.48;8.85;;;;;;;5.22;100.00;98395.16;6249262;22;20038;-82
2022/12/29 01:32:11;;;;;;;19.60;9.68;;;;;;;5.06;100.00;98396.47;6275327;22;20000;-83
2022/12/29 01:34:36;;;;;;;20.88;10.23;;;;;;;4.88;100.00;98390.75;6249950;22;20435;-83
2022/12/29 01:37:02;;;;;;;19.88;9.63;;;;;;;4.75;100.00;98389.31;6275181;22;20343;-83
2022/12/29 01:39:27;;;;;;;23.35;10.45;;;;;;;4.67;100.00;98385.13;6275227;22;20004;-82
2022/12/29 01:41:53;;;;;;;19.95;8.90;;;;;;;4.58;100.00;98386.22;6274763;22;20000;-84
2022/12/29 01:44:46;;;;;;;24.08;10.15;;;;;;;4.64;100.00;98391.38;6274864;22;20004;-83
2022/12/29 01:47:14;;;;;;;24.23;10.20;;;;;;;4.56;100.00;98380.06;6273971;22;20050;-82
2022/12/29 01:49:40;;;;;;;24.83;9.60;;;;;;;4.56;100.00;98380.06;6274298;22;20371;-83
2022/12/29 01:52:07;;;;;;;22.95;10.05;;;;;;;4.62;100.00;98381.69;6249268;22;19995;-83
2022/12/29 01:54:37;;;;;;;20.95;9.77;;;;;;;4.65;100.00;98382.50;6248916;22;20007;-82
2022/12/29 01:57:08;;;;;;;22.80;10.65;;;;;;;4.62;100.00;98371.09;6249880;22;20458;-82
2022/12/29 01:59:41;;;;;;;31.55;13.73;;;;;;;4.53;100.00;98374.84;6249006;22;20363;-83
2022/12/29 02:02:07;;;;;;;28.48;12.80;;;;;;;4.36;100.00;98350.56;6248775;22;20007;-83
2022/12/29 02:04:33;;;;;;;21.75;9.80;;;;;;;4.62;100.00;98366.66;6248940;22;20007;-82
2022/12/29 02:07:05;;;;;;;15.13;7.40;;;;;;;4.53;100.00;98344.84;6274582;22;20041;-81
2022/12/29 02:09:31;;;;;;;12.23;6.38;;;;;;;4.54;100.00;98344.81;6249515;22;20034;-84
2022/12/29 02:11:57;;;;;;;14.63;7.43;;;;;;;4.60;100.00;98351.72;6248769;22;20082;-83
2022/12/29 02:14:23;;;;;;;12.82;6.72;;;;;;;4.77;100.00;98353.03;6249228;22;20003;-83
2022/12/29 02:17:11;;;;;;;10.90;5.93;;;;;;;4.79;100.00;98351.22;6248790;22;20507;-83
2022/12/29 02:20:01;;;;;;;8.90;5.38;;;;;;;4.93;100.00;98340.25;6249376;22;20004;-83
2022/12/29 02:23:03;;;;;;;10.90;5.00;;;;;;;5.46;100.00;98336.09;6274187;22;20003;-83
2022/12/29 02:25:38;;;;;;;9.13;4.82;;;;;;;5.90;100.00;98306.47;6275978;22;20003;-84
2022/12/29 02:28:03;;;;;;;7.45;4.45;;;;;;;6.15;100.00;98303.91;6276575;22;20088;-82
2022/12/29 02:30:51;;;;;;;15.75;8.10;;;;;;;5.93;100.00;98285.16;6274144;22;20003;-83
2022/12/29 02:33:44;;;;;;;19.35;8.75;;;;;;;5.63;100.00;98291.34;6248664;22;19999;-82
2022/12/29 02:36:31;;;;;;;15.23;6.18;;;;;;;5.37;100.00;98288.63;6274415;22;20517;-82
2022/12/29 02:39:25;;;;;;;11.57;6.18;;;;;;;5.13;100.00;98282.25;6273975;22;20459;-84
2022/12/29 02:41:57;;;;;;;19.20;8.55;;;;;;;4.95;100.00;98290.72;6248152;22;20011;-83
2022/12/29 02:44:46;;;;;;;20.43;8.37;;;;;;;4.66;100.00;98288.84;6274099;22;20141;-83
2022/12/29 02:47:11;;;;;;;21.15;9.27;;;;;;;4.48;100.00;98297.28;6248347;22;20726;-83
2022/12/29 02:49:48;;;;;;;17.88;7.75;;;;;;;4.36;100.00;98306.41;6275611;22;20082;-83
2022/12/29 02:52:17;;;;;;;16.98;8.50;;;;;;;4.28;100.00;98302.19;6274379;22;19996;-83
2022/12/29 02:54:43;;;;;;;12.13;6.03;;;;;;;4.19;100.00;98298.00;6248420;22;20003;-82
2022/12/29 02:57:29;;;;;;;17.73;7.65;;;;;;;4.03;100.00;98301.94;6274162;22;20083;-83
2022/12/29 03:00:07;;;;;;;15.07;7.72;;;;;;;3.86;100.00;98303.25;6248080;22;20038;-82
2022/12/29 03:02:48;;;;;;;18.55;8.45;;;;;;;3.75;100.00;98324.66;6273849;22;20051;-82
2022/12/29 03:05:23;;;;;;;22.75;8.95;;;;;;;3.66;100.00;98338.94;6273854;22;20010;-83
2022/12/29 03:08:01;;;;;;;18.00;8.80;;;;;;;3.58;100.00;98334.72;6273763;22;20007;-83
2022/12/29 03:10:55;;;;;;;23.77;10.32;;;;;;;3.50;100.00;98342.84;6248160;22;20012;-83
2022/12/29 03:16:34;;;;;;;26.10;10.48;;;;;;;3.20;100.00;98351.38;6275582;22;20054;-83
2022/12/29 03:19:00;;;;;;;;;;;;;;;3.24;100.00;98361.00;6273246;22;20352;-83
2022/12/29 03:24:22;;;;;;;21.35;9.32;;;;;;;3.02;100.00;98367.59;6227405;22;20384;-82
2022/12/29 03:26:49;;;;;;;22.92;9.88;;;;;;;2.84;100.00;98360.03;6247945;22;20008;-82
2022/12/29 03:29:15;;;;;;;29.10;10.73;;;;;;;2.87;100.00;98367.88;6248175;22;20029;-82
2022/12/29 03:31:42;;;;;;;26.33;10.25;;;;;;;2.88;100.00;98390.78;6273850;22;20011;-83
2022/12/29 03:34:08;;;;;;;19.63;10.05;;;;;;;2.74;100.00;98362.81;6248087;22;20153;-82
2022/12/29 03:36:46;;;;;;;24.90;10.73;;;;;;;2.86;100.00;98387.31;6273877;22;20411;-83
2022/12/29 03:39:12;;;;;;;30.65;11.98;;;;;;;2.90;100.00;98388.97;6247728;22;20000;-82
2022/12/29 03:41:43;;;;;;;23.85;10.68;;;;;;;2.82;100.00;98383.84;6273524;22;20010;-83
2022/12/29 03:44:08;;;;;;;26.00;10.80;;;;;;;2.87;100.00;98399.59;6273617;22;20007;-81
2022/12/29 03:46:34;;;;;;;28.77;12.48;;;;;;;2.87;100.00;98384.63;6273423;22;20020;-83
2022/12/29 03:49:00;;;;;;;31.80;13.98;;;;;;;2.98;100.00;98395.88;6247748;22;20011;-82
2022/12/29 03:51:25;;;;;;;45.55;13.13;;;;;;;2.96;100.00;98387.09;6273750;22;19999;-83
2022/12/29 03:53:51;;;;;;;23.85;11.38;;;;;;;3.00;100.00;98378.22;6248004;22;20003;-82
2022/12/29 03:56:16;;;;;;;26.33;11.77;;;;;;;3.07;100.00;98379.84;6248266;22;20089;-83
2022/12/29 03:58:42;;;;;;;37.97;13.00;;;;;;;3.10;100.00;98373.63;6273753;22;20455;-83
2022/12/29 04:01:07;;;;;;;24.58;12.60;;;;;;;3.20;100.00;98375.16;6247706;22;20003;-82
2022/12/29 04:03:33;;;;;;;37.63;14.32;;;;;;;3.18;100.00;98364.66;6273481;22;20006;-83
2022/12/29 04:05:59;;;;;;;24.30;11.52;;;;;;;3.25;100.00;98368.91;6247603;22;20004;-82
2022/12/29 04:08:24;;;;;;;29.90;12.32;;;;;;;3.37;100.00;98373.09;6247821;22;20465;-82
2022/12/29 04:10:50;;;;;;;36.70;13.30;;;;;;;3.33;100.00;98360.81;6273480;22;20057;-83
2022/12/29 04:13:16;;;;;;;139.35;32.33;;;;;;;3.30;100.00;98350.31;6248065;22;20134;-82
2022/12/29 04:15:43;;;;;;;33.75;12.18;;;;;;;3.28;100.00;98341.53;6247666;22;20454;-82
2022/12/29 04:18:08;;;;;;;30.42;11.02;;;;;;;3.25;100.00;98355.69;6247620;22;20439;-82
2022/12/29 04:23:18;;;;;;;29.30;11.45;;;;;;;3.01;100.00;98358.81;6273266;22;20019;-83
2022/12/29 04:25:46;;;;;;;23.45;10.57;;;;;;;2.89;100.00;98364.31;6273474;22;20394;-82
2022/12/29 04:28:11;;;;;;;27.63;10.65;;;;;;;2.79;100.00;98361.88;6247531;22;20014;-81
2022/12/29 04:30:37;;;;;;;23.45;10.02;;;;;;;2.66;100.00;98367.38;6247673;22;20083;-82
2022/12/29 04:33:02;;;;;;;21.45;10.40;;;;;;;2.68;100.00;98381.44;6273387;22;20493;-81
2022/12/29 04:35:28;;;;;;;20.38;10.60;;;;;;;2.70;100.00;98395.50;6247750;22;20432;-82
2022/12/29 04:37:54;;;;;;;31.63;10.85;;;;;;;2.72;100.00;98404.25;6247674;22;20371;-81
2022/12/29 04:40:19;;;;;;;24.63;11.10;;;;;;;2.57;100.00;98393.97;6247473;22;20011;-83
2022/12/29 04:42:45;;;;;;;30.65;10.85;;;;;;;2.53;100.00;98397.53;6247937;22;20010;-83
2022/12/29 04:45:10;;;;;;;27.15;11.88;;;;;;;2.52;100.00;98413.41;6247734;22;20509;-82
2022/12/29 04:47:36;;;;;;;36.22;14.13;;;;;;;2.44;100.00;98413.53;6273593;22;20076;-83
2022/12/29 04:50:01;;;;;;;103.10;32.05;;;;;;;2.44;100.00;98417.94;6247360;22;20007;-82
2022/12/29 04:52:27;;;;;;;194.85;67.03;;;;;;;2.48;100.00;98414.34;6247729;22;20947;-82
2022/12/29 04:54:52;;;;;;;137.60;48.55;;;;;;;2.51;100.00;98420.47;6273076;22;19999;-82
2022/12/29 04:57:18;;;;;;;75.75;29.80;;;;;;;2.45;100.00;98415.28;6247429;22;20008;-82
2022/12/29 04:59:44;;;;;;;64.88;27.58;;;;;;;2.47;100.00;98418.75;6247377;22;20008;-82
2022/12/29 05:02:09;;;;;;;80.55;32.72;;;;;;;2.43;100.00;98414.41;6247901;22;20383;-81
2022/12/29 05:04:35;;;;;;;68.90;28.05;;;;;;;2.44;100.00;98417.94;6247759;22;20007;-82
2022/12/29 05:07:00;;;;;;;57.15;22.90;;;;;;;2.31;100.00;98409.31;6272958;22;20010;-80
2022/12/29 05:09:26;;;;;;;65.30;24.63;;;;;;;2.44;100.00;98433.75;6272952;22;20006;-82
2022/12/29 05:11:51;;;;;;;51.72;20.88;;;;;;;2.35;100.00;98429.50;6247581;22;20010;-80
2022/12/29 05:14:17;;;;;;;58.60;23.45;;;;;;;2.23;100.00;98431.47;6273418;22;20010;-83
2022/12/29 05:16:42;;;;;;;58.17;22.42;;;;;;;2.17;100.00;98438.59;6273198;22;20000;-82
2022/12/29 05:19:08;;;;;;;52.80;22.35;;;;;;;2.19;100.00;98447.34;6272726;22;20354;-82
2022/12/29 05:21:33;;;;;;;52.38;24.20;;;;;;;2.21;100.00;98443.81;6247650;22;20356;-82
2022/12/29 05:23:59;;;;;;;48.60;21.65;;;;;;;2.22;100.00;98453.44;6249303;22;20003;-82
2022/12/29 05:26:24;;;;;;;51.22;19.63;;;;;;;2.21;100.00;98454.38;6249221;22;20464;-81
2022/12/29 05:28:53;;;;;;;47.50;17.17;;;;;;;2.10;100.00;98455.38;6274950;22;20004;-84
2022/12/29 05:31:18;;;;;;;32.70;15.13;;;;;;;1.94;100.00;98447.72;6249390;22;20008;-81
2022/12/29 05:33:44;;;;;;;28.50;13.10;;;;;;;2.05;100.00;98456.34;6249655;22;20329;-81
2022/12/29 05:36:09;;;;;;;32.67;14.15;;;;;;;2.01;100.00;98466.06;6249591;22;20007;-81
2022/12/29 05:38:35;;;;;;;41.25;15.38;;;;;;;1.94;100.00;98466.19;6249052;22;20011;-82
2022/12/29 05:41:01;;;;;;;69.47;24.30;;;;;;;1.88;100.00;98461.84;6249172;22;20008;-82
2022/12/29 05:43:26;;;;;;;61.58;23.27;;;;;;;1.94;100.00;98474.09;6248710;22;20004;-81
2022/12/29 05:45:56;;;;;;;85.55;30.83;;;;;;;1.86;100.00;98466.28;6248874;22;20062;-74
2022/12/29 05:48:21;;;;;;;100.75;35.92;;;;;;;1.88;100.00;98479.41;6274028;22;20016;-72
2022/12/29 05:50:48;;;;;;;93.90;34.30;;;;;;;1.87;100.00;98477.69;6273974;22;20405;-74
2022/12/29 05:53:13;;;;;;;71.22;27.98;;;;;;;1.87;100.00;98483.84;6275793;22;20000;-88
2022/12/29 05:55:39;;;;;;;70.90;29.05;;;;;;;1.96;100.00;98488.13;6249282;22;20439;-73
2022/12/29 05:58:05;;;;;;;105.65;41.78;;;;;;;1.98;100.00;98492.47;6276560;22;20015;-84
2022/12/29 06:00:30;;;;;;;87.72;37.28;;;;;;;2.01;100.00;98491.56;6275421;22;20000;-84
2022/12/29 06:02:56;;;;;;;73.63;30.63;;;;;;;2.08;100.00;98494.13;6249332;22;20010;-82
2022/12/29 06:05:21;;;;;;;74.70;28.63;;;;;;;2.12;100.00;98495.81;6249026;22;20014;-82
2022/12/29 06:08:03;;;;;;;;;;;;;;;;;;;;;
2022/12/29 06:11:14;;;;;;;87.68;36.95;;;;;;;2.21;100.00;98504.50;6235316;22;20078;-85
2022/12/29 06:13:39;;;;;;;89.10;32.90;;;;;;;2.13;100.00;98480.84;6259315;22;20003;-81
2022/12/29 06:16:06;;;;;;;85.00;34.00;;;;;;;2.25;100.00;98485.09;6249959;22;20486;-84
2022/12/29 06:18:31;;;;;;;92.78;36.58;;;;;;;2.31;100.00;98480.59;6249621;22;20012;-82
2022/12/29 06:21:04;;;;;;;66.20;28.83;;;;;;;2.44;100.00;98492.72;6276548;22;20406;-81
2022/12/29 06:23:33;;;;;;;73.53;27.40;;;;;;;2.46;100.00;98484.78;6275504;22;20004;-81
2022/12/29 06:25:58;;;;;;;100.70;37.95;;;;;;;2.48;100.00;98481.22;6249521;22;20011;-82
2022/12/29 06:28:24;;;;;;;115.35;46.70;;;;;;;2.58;100.00;98492.53;6275080;22;20078;-82
2022/12/29 06:30:49;;;;;;;123.32;49.50;;;;;;;2.71;100.00;98492.31;6249035;22;20008;-81
2022/12/29 06:33:15;;;;;;;148.85;58.42;;;;;;;2.78;100.00;98493.09;6250477;22;20085;-83
2022/12/29 06:35:42;;;;;;;188.15;76.95;;;;;;;2.89;100.00;98488.47;6249251;22;20007;-83
2022/12/29 06:38:08;;;;;;;207.80;86.68;;;;;;;2.95;100.00;98483.13;6250770;22;20072;-83
2022/12/29 06:40:33;;;;;;;209.23;84.80;;;;;;;3.04;100.00;98482.09;6249264;22;20398;-82
2022/12/29 06:42:59;;;;;;;200.63;82.85;;;;;;;3.13;100.00;98474.00;6248961;22;20343;-82
2022/12/29 06:45:24;;;;;;;164.60;64.50;;;;;;;3.19;100.00;98473.91;6277793;22;20030;-85
2022/12/29 06:47:50;;;;;;;165.35;63.72;;;;;;;3.22;100.00;98464.16;6250601;22;20038;-83
2022/12/29 06:50:16;;;;;;;226.05;91.53;;;;;;;3.48;100.00;98486.56;6250894;22;20355;-82
2022/12/29 06:52:41;;;;;;;185.07;74.25;;;;;;;3.92;100.00;98483.03;6251113;22;20003;-82
2022/12/29 06:55:07;;;;;;;263.55;118.20;;;;;;;4.91;100.00;98496.69;6279525;22;20447;-82
2022/12/29 06:57:33;;;;;;;181.60;71.25;;;;;;;6.15;100.00;98494.28;6284804;22;20074;-82
2022/12/29 06:59:58;;;;;;;157.80;65.63;;;;;;;7.27;100.00;98456.09;6253317;22;20023;-84
2022/12/29 07:02:25;;;;;;;170.07;71.90;;;;;;;8.35;100.00;98439.72;6252801;22;20360;-81
2022/12/29 07:04:52;;;;;;;146.07;60.38;;;;;;;9.01;96.22;98425.50;6276597;22;20497;-84
2022/12/29 07:07:19;;;;;;;146.93;62.15;;;;;;;9.31;91.67;98401.97;6277556;22;20073;-83
2022/12/29 07:09:45;;;;;;;137.93;59.20;;;;;;;9.87;85.96;98381.63;6281176;22;20501;-83
2022/12/29 07:12:27;;;;;;;137.63;62.08;;;;;;;9.72;82.13;98358.28;6249662;22;20004;-85
2022/12/29 07:14:56;;;;;;;153.70;71.97;;;;;;;8.70;88.02;98340.53;6274502;22;20011;-83
2022/12/29 07:17:25;;;;;;;128.80;55.25;;;;;;;8.08;92.69;98321.72;6249890;22;20042;-82
2022/12/29 07:19:50;;;;;;;146.25;59.03;;;;;;;7.89;95.83;98334.91;6249842;22;20008;-82
2022/12/29 07:22:16;;;;;;;153.65;72.93;;;;;;;7.44;99.58;98331.31;6274904;22;20119;-81
2022/12/29 07:24:43;;;;;;;145.30;66.15;;;;;;;7.37;100.00;98345.75;6274163;22;20004;-80
2022/12/29 07:27:08;;;;;;;182.25;79.40;;;;;;;7.33;100.00;98350.31;6248958;22;20007;-85
2022/12/29 07:29:34;;;;;;;170.25;67.78;;;;;;;7.10;100.00;98347.63;6250338;22;20386;-81
2022/12/29 07:31:59;;;;;;;149.25;63.92;;;;;;;7.02;100.00;98344.34;6258303;22;19999;-82
2022/12/29 07:34:25;;;;;;;159.07;70.07;;;;;;;6.77;100.00;98339.00;6250903;22;20457;-82
2022/12/29 07:36:54;;;;;;;156.93;70.78;;;;;;;6.77;100.00;98331.03;6254632;22;20065;-81
2022/12/29 07:39:19;;;;;;;160.20;70.43;;;;;;;7.04;100.00;98348.69;6249427;22;20408;-80
2022/12/29 07:41:57;;;;;;;192.88;87.15;;;;;;;7.12;100.00;98351.09;6274658;22;20039;-81
2022/12/29 07:44:22;;;;;;;176.05;76.88;;;;;;;6.90;100.00;98323.50;6249772;22;20007;-81
2022/12/29 07:46:48;;;;;;;169.02;74.65;;;;;;;7.04;100.00;98343.38;6247981;22;20083;-82
2022/12/29 07:49:14;;;;;;;181.77;80.45;;;;;;;7.27;100.00;98345.22;6248596;22;20004;-83
2022/12/29 07:51:40;;;;;;;195.57;84.03;;;;;;;8.61;100.00;98378.25;6252514;22;20008;-82
2022/12/29 07:54:30;;;;;;;146.52;65.50;;;;;;;10.05;88.55;98358.53;6280457;22;20011;-84
2022/12/29 07:56:55;;;;;;;194.18;87.55;;;;;;;11.10;78.97;98351.56;6255440;22;20406;-82
2022/12/29 07:59:21;;;;;;;175.43;80.47;;;;;;;11.55;75.28;98317.03;6249428;22;20007;-82
2022/12/29 08:01:47;;;;;;;168.25;75.53;;;;;;;12.10;68.53;98314.91;6249078;22;20010;-81
2022/12/29 08:04:12;;;;;;;170.95;78.95;;;;;;;12.38;67.46;98308.84;6252462;22;20439;-82
2022/12/29 08:06:41;;;;;;;172.30;85.80;;;;;;;12.82;66.09;98308.97;6251744;22;20332;-82
2022/12/29 08:09:08;;;;;;;191.95;92.38;;;;;;;13.00;64.45;98299.81;6282078;22;20000;-83
2022/12/29 08:11:33;;;;;;;158.45;81.80;;;;;;;13.18;62.79;98285.31;6252433;22;20398;-82
2022/12/29 08:13:59;;;;;;;154.25;77.82;;;;;;;13.51;61.93;98299.38;6274572;22;20011;-81
2022/12/29 08:16:24;;;;;;;95.43;46.00;;;;;;;13.94;58.36;98285.91;6274515;22;20003;-82
2022/12/29 08:18:50;;;;;;;94.40;46.00;;;;;;;14.07;57.07;98257.28;6249000;22;20011;-81
2022/12/29 08:21:15;;;;;;;85.63;43.95;;;;;;;14.24;56.49;98262.44;6251217;22;20079;-82
2022/12/29 08:23:41;;;;;;;151.73;74.30;;;;;;;14.58;55.92;98266.50;6251795;22;20413;-81
2022/12/29 08:26:07;;;;;;;56.97;29.13;;;;;;;14.80;54.64;98269.47;6251356;22;20355;-82
2022/12/29 08:28:33;;;;;;;62.15;31.33;;;;;;;15.26;53.00;98258.25;6276337;22;20010;-82
2022/12/29 08:31:00;;;;;;;59.00;25.10;;;;;;;15.39;51.89;98251.03;6275075;22;20137;-82
2022/12/29 08:33:26;;;;;;;43.90;24.48;;;;;;;15.77;50.97;98253.75;6249240;22;20004;-82
2022/12/29 08:35:52;;;;;;;39.83;20.38;;;;;;;15.76;50.88;98246.63;6248817;22;20003;-82
2022/12/29 08:38:17;;;;;;;45.88;21.10;;;;;;;16.19;49.53;98239.84;6249117;22;20015;-81
2022/12/29 08:40:43;;;;;;;35.15;18.17;;;;;;;16.96;47.48;98246.66;6247931;22;20004;-81
2022/12/29 08:43:09;;;;;;;30.30;17.30;;;;;;;17.06;47.45;98234.16;6247676;22;20008;-78
2022/12/29 08:45:35;;;;;;;32.28;19.35;;;;;;;17.41;51.77;98267.44;6272643;22;20042;-74
2022/12/29 08:48:01;;;;;;;31.95;16.00;;;;;;;17.44;47.04;98237.47;6273629;22;20015;-74
2022/12/29 08:50:27;;;;;;;31.73;18.02;;;;;;;17.28;46.67;98220.72;6247236;22;20051;-74
2022/12/29 08:52:53;;;;;;;43.42;24.35;;;;;;;17.42;50.80;98239.41;6274396;22;20003;-73
2022/12/29 08:55:18;;;;;;;55.38;27.10;;;;;;;17.64;46.31;98215.13;6273112;22;20439;-74
2022/12/29 08:57:44;;;;;;;42.88;24.00;;;;;;;18.00;46.05;98226.66;6276164;22;20031;-74
2022/12/29 09:00:10;;;;;;;47.78;24.17;;;;;;;17.98;46.05;98215.09;6274350;22;20015;-73
2022/12/29 09:02:36;;;;;;;45.90;25.33;;;;;;;18.11;44.45;98202.31;6274213;22;20455;-74
2022/12/29 09:05:01;;;;;;;47.28;26.58;;;;;;;18.32;44.30;98208.66;6274162;22;20003;-73
2022/12/29 09:07:27;;;;;;;57.63;29.38;;;;;;;18.11;44.55;98205.88;6275952;22;20006;-73
2022/12/29 09:09:52;;;;;;;70.53;32.28;;;;;;;18.34;45.29;98199.41;6274250;22;20007;-74
2022/12/29 09:12:18;;;;;;;69.75;34.03;;;;;;;19.23;43.21;98206.31;6274491;22;20405;-75
2022/12/29 09:14:46;;;;;;;54.85;29.45;;;;;;;17.33;45.34;98180.63;6274538;22;20050;-74
2022/12/29 09:19:55;;;;;;;62.30;28.92;;;;;;;17.63;47.39;98210.69;6274692;22;20413;-74
2022/12/29 09:22:21;;;;;;;58.30;31.27;;;;;;;17.63;46.66;98178.22;6274273;22;20043;-75
2022/12/29 09:24:46;;;;;;;47.53;27.98;;;;;;;18.64;46.36;98204.13;6275888;22;20016;-74
2022/12/29 09:27:12;;;;;;;57.28;30.30;;;;;;;19.26;43.56;98187.06;6274004;22;20000;-74
2022/12/29 09:29:38;;;;;;;74.22;36.25;;;;;;;19.84;42.33;98186.41;6274031;22;19999;-75
2022/12/29 09:32:03;;;;;;;76.32;40.00;;;;;;;20.46;41.04;98182.59;6274142;22;20427;-76
2022/12/29 09:34:29;;;;;;;80.03;40.42;;;;;;;21.10;39.90;98176.66;6248140;22;20003;-74
2022/12/29 09:36:56;;;;;;;71.95;37.05;;;;;;;19.43;42.08;98145.81;6274393;22;20004;-75
2022/12/29 09:39:22;;;;;;;63.28;35.15;;;;;;;19.78;41.83;98161.69;6274074;22;20459;-74
2022/12/29 09:42:15;;;;;;;71.38;37.80;;;;;;;19.18;42.72;98157.03;6273940;22;20435;-75
2022/12/29 09:44:46;;;;;;;63.42;33.78;;;;;;;19.89;41.63;98170.56;6273876;22;20007;-74
2022/12/29 09:47:14;;;;;;;58.30;32.60;;;;;;;20.88;39.94;98158.75;6275166;22;20023;-74
2022/12/29 09:49:45;;;;;;;56.08;31.95;;;;;;;20.93;39.62;98151.84;6273982;22;20465;-75
2022/12/29 09:52:19;;;;;;;100.70;55.22;;;;;;;21.49;39.20;98145.63;6273722;22;20435;-75
2022/12/29 09:55:04;;;;;;;57.10;29.73;;;;;;;21.79;37.71;98142.63;6273658;22;20516;-75
2022/12/29 09:57:38;;;;;;;48.40;28.33;;;;;;;22.72;36.67;98157.88;6273584;22;20003;-75
2022/12/29 10:00:13;;;;;;;47.55;28.45;;;;;;;23.35;35.34;98144.97;6273537;22;20055;-76
2022/12/29 10:03:02;;;;;;;61.88;29.83;;;;;;;22.67;36.30;98125.63;6273347;22;20008;-76
2022/12/29 10:05:48;;;;;;;49.88;28.42;;;;;;;22.43;36.15;98122.63;6248322;22;20010;-75
2022/12/29 10:08:35;;;;;;;51.15;30.30;;;;;;;22.52;36.51;98121.69;6273461;22;20079;-76
2022/12/29 10:11:13;;;;;;;52.20;33.60;;;;;;;22.84;35.73;98116.56;6275274;22;20542;-75
2022/12/29 10:14:08;;;;;;;59.53;34.13;;;;;;;22.99;35.78;98125.03;6273320;22;19996;-75
2022/12/29 10:16:53;;;;;;;49.60;29.42;;;;;;;23.72;34.33;98116.34;6273199;22;20003;-76
2022/12/29 10:19:41;;;;;;;52.75;26.88;;;;;;;24.13;34.58;98109.22;6273356;22;20084;-75
2022/12/29 10:22:37;;;;;;;40.80;23.98;;;;;;;23.75;34.39;98098.75;6275100;22;20502;-75
2022/12/29 10:25:11;;;;;;;42.67;22.52;;;;;;;23.56;34.88;98093.56;6275325;22;20000;-75
2022/12/29 10:27:37;;;;;;;44.42;21.52;;;;;;;22.82;35.64;98082.28;6247782;22;20026;-75
2022/12/29 10:30:03;;;;;;;40.05;22.27;;;;;;;23.22;35.60;98086.13;6273443;22;20439;-74
2022/12/29 10:32:58;;;;;;;44.70;25.73;;;;;;;24.22;34.13;98097.28;6273164;22;20004;-75
2022/12/29 10:35:28;;;;;;;49.53;23.92;;;;;;;24.84;33.32;98097.72;6241888;22;20010;-75
2022/12/29 10:38:13;;;;;;;50.63;24.38;;;;;;;24.88;33.28;98084.56;6273413;22;20457;-77
2022/12/29 10:40:59;;;;;;;40.78;24.33;;;;;;;24.51;33.57;98063.13;6273296;22;20447;-75
2022/12/29 10:43:24;;;;;;;40.15;23.40;;;;;;;24.33;33.82;98070.63;6274823;22;20010;-75
2022/12/29 10:45:55;;;;;;;44.20;21.92;;;;;;;24.87;33.41;98063.69;6274672;22;20023;-76
2022/12/29 10:48:33;;;;;;;34.90;20.60;;;;;;;24.14;34.28;98052.66;6247814;22;20003;-75
2022/12/29 10:51:01;;;;;;;34.40;19.75;;;;;;;23.64;35.05;98053.47;6273427;22;19999;-75
2022/12/29 10:53:33;;;;;;;38.78;19.17;;;;;;;23.60;35.25;98053.94;6247662;22;20109;-75
2022/12/29 10:56:00;;;;;;;32.72;18.65;;;;;;;24.36;34.45;98064.84;6247928;22;20007;-75
2022/12/29 10:58:26;;;;;;;33.35;18.25;;;;;;;24.97;33.35;98065.22;6273976;22;20000;-77
2022/12/29 11:00:53;;;;;;;20.65;12.82;;;;;;;25.71;32.55;98064.06;6272993;22;19999;-76
2022/12/29 11:03:41;;;;;;;29.40;17.38;;;;;;;25.70;32.46;98057.72;6247249;22;20355;-75
2022/12/29 11:06:13;;;;;;;28.27;16.98;;;;;;;25.24;33.29;98047.56;6273052;22;20010;-75
2022/12/29 11:08:54;;;;;;;29.05;16.48;;;;;;;25.58;32.93;98059.13;6274164;22;20014;-75
2022/12/29 11:11:26;;;;;;;26.42;16.60;;;;;;;26.53;31.78;98065.34;6273022;22;20475;-75
2022/12/29 11:14:07;;;;;;;30.48;15.65;;;;;;;26.76;31.42;98050.56;6272966;22;20003;-75
2022/12/29 11:16:34;;;;;;;39.80;17.37;;;;;;;26.01;32.42;98032.22;6247603;22;20011;-75
2022/12/29 11:19:00;;;;;;;24.35;13.30;;;;;;;24.25;34.57;98012.16;6246834;22;20045;-75
2022/12/29 11:21:41;;;;;;;29.13;15.90;;;;;;;22.94;36.60;98004.59;6247172;22;20081;-75
2022/12/29 11:24:25;;;;;;;34.45;19.15;;;;;;;21.64;38.40;97986.19;6247793;22;20012;-75
2022/12/29 11:26:57;;;;;;;32.17;19.15;;;;;;;20.69;40.08;97988.28;6273929;22;20061;-76
2022/12/29 11:29:25;;;;;;;29.90;17.67;;;;;;;20.20;41.77;97996.63;6272911;22;20013;-76
2022/12/29 11:31:57;;;;;;;46.65;24.92;;;;;;;20.10;45.35;98017.50;6271687;22;20008;-74
2022/12/29 11:34:26;;;;;;;50.10;25.58;;;;;;;19.60;43.07;97989.56;6269777;22;20008;-76
2022/12/29 11:36:54;;;;;;;45.97;24.02;;;;;;;18.92;47.38;98013.72;6271709;22;20404;-74
2022/12/29 11:39:28;;;;;;;31.20;17.50;;;;;;;18.03;47.03;97985.44;6244766;22;20007;-75
2022/12/29 11:41:54;;;;;;;92.22;45.63;;;;;;;17.28;49.52;97990.84;6269588;22;20004;-81
2022/12/29 11:44:20;;;;;;;65.25;33.80;;;;;;;16.91;54.95;98005.63;6243824;22;20011;-76
2022/12/29 11:46:48;;;;;;;34.15;15.80;;;;;;;16.56;53.85;98000.31;6269596;22;20451;-75
2022/12/29 11:49:20;;;;;;;39.67;18.48;;;;;;;16.13;56.00;98002.75;6272315;22;20007;-74
2022/12/29 11:51:47;;;;;;;46.30;18.00;;;;;;;16.26;55.85;98014.34;6270935;22;20007;-77
2022/12/29 11:54:22;;;;;;;30.92;14.27;;;;;;;16.66;57.34;98033.72;6270591;22;20249;-75
2022/12/29 11:56:48;;;;;;;26.98;12.35;;;;;;;16.61;53.96;98007.06;6244745;22;20012;-76
2022/12/29 11:59:36;;;;;;;27.00;13.18;;;;;;;16.72;53.66;98009.78;6270631;22;20097;-76
2022/12/29 12:02:11;;;;;;;32.42;14.90;;;;;;;16.56;56.75;98021.91;6271338;22;20085;-76
2022/12/29 12:04:38;;;;;;;31.10;14.05;;;;;;;16.77;54.23;98021.09;6271379;22;20487;-77
2022/12/29 12:07:13;;;;;;;25.42;14.48;;;;;;;17.50;53.53;98042.22;6269134;22;20011;-75